Celebrity Equinox — 9HXD9 — position and weather

sailwx.info

Track history (hours):
 
Tides and Currents Weather Stations Pressure Air Temp Water Temp Dewpoint Dewpoint Depression Visibility Wind Speed Wind Dir Waves Ship Positions

Celebrity Equinox

Last reported at 2015-Jul-29 17:32 UTC. Time now 2015-Jul-30 16:16 UTC.
Position N 38°54' E 001°27'.

Length 316 m.

Type: Ship. MMSI: 249667000.

Date/timePositionNaut miles runAvg speedWind from/ knotsBaromVisibWave heightAir tempDewpointWater temp
2015-Jul-29 17:32N 38°54' E 001°27'0 0.0
2015-Jul-29 16:33N 38°54' E 001°27'0 0.0
2015-Jul-29 15:31N 38°54' E 001°27'0 0.0
2015-Jul-29 14:29N 38°54' E 001°27'1 0.8
2015-Jul-29 13:29N 38°54' E 001°28'1414.6
2015-Jul-29 12:33N 39°00' E 001°43'2019.2
2015-Jul-29 11:29N 39°17' E 001°58'1819.3
2015-Jul-29 10:33N 39°33' E 002°11'1816.9
2015-Jul-29 09:30N 39°46' E 002°25'3517.4
2015-Jul-29 07:29N 40°12' E 002°56'1617.4
2015-Jul-29 06:33N 40°24' E 003°12'1818.0
2015-Jul-29 05:33N 40°36' E 003°28'13120.9
2015-Jul-28 23:16N 42°12' E 005°29'1419.6
2015-Jul-28 22:33N 42°21' E 005°43'2019.6
2015-Jul-28 21:33N 42°35' E 006°02'2320.3
2015-Jul-28 20:25N 42°50' E 006°24'1820.8
2015-Jul-28 19:33N 43°05' E 006°40'2120.9
2015-Jul-28 18:33N 43°21' E 006°57'2121.0
2015-Jul-28 17:33N 43°37' E 007°16'5 4.6
2015-Jul-28 16:31N 43°41' E 007°19'0 0.0
2015-Jul-28 15:25N 43°41' E 007°19'0 0.0
2015-Jul-28 14:24N 43°41' E 007°19'0 0.0
2015-Jul-28 13:30N 43°41' E 007°19'0 0.0
2015-Jul-28 12:29N 43°41' E 007°19'0 0.0
2015-Jul-28 11:29N 43°41' E 007°19'0 0.0
2015-Jul-28 10:22N 43°41' E 007°19'0 0.0
2015-Jul-28 09:28N 43°41' E 007°19'0 0.0
2015-Jul-28 08:22N 43°41' E 007°19'0 0.0
2015-Jul-28 07:27N 43°41' E 007°19'0 0.0
2015-Jul-28 06:33N 43°41' E 007°19'0 0.0
2015-Jul-28 05:32N 43°41' E 007°19'0 0.1
2015-Jul-28 04:33N 43°41' E 007°19'5 5.4
2015-Jul-28 03:33N 43°36' E 007°21'4112.3
2015-Jul-28 00:12N 42°59' E 007°47'810.3
2015-Jul-27 23:23N 42°52' E 007°52'910.4
2015-Jul-27 22:33N 42°44' E 007°57'  
2015-Jul-24 19:27N 40°38' E 013°42'1920.8
2015-Jul-24 18:33N 40°32' E 014°05'2020.3
2015-Jul-24 17:33N 40°34' E 014°32'9 0.6
2015-Jul-24 04:15N 40°35' E 014°43'1014.7
2015-Jul-24 03:33N 40°25' E 014°44'12615.7
2015-Jul-23 19:29N 38°26' E 015°38'1213.4
2015-Jul-23 18:34N 38°14' E 015°37'1716.9
2015-Jul-23 17:33N 37°58' E 015°30'1817.5
2015-Jul-23 16:33N 37°42' E 015°20'1715.4
2015-Jul-23 15:25N 37°28' E 015°06'32 2.2
2015-Jul-23 01:06N 37°02' E 015°29'5 9.6
2015-Jul-23 00:33N 36°57' E 015°31'10 9.5
2015-Jul-22 23:33N 36°48' E 015°28'10 9.7
2015-Jul-22 22:33N 36°38' E 015°26'10 9.5
2015-Jul-22 21:33N 36°30' E 015°19'10 9.8
2015-Jul-22 20:33N 36°23' E 015°11'9 9.4
2015-Jul-22 19:33N 36°17' E 015°02'9 9.3
2015-Jul-22 18:33N 36°11' E 014°54'9 9.5
2015-Jul-22 17:33N 36°04' E 014°45'1312.9
2015-Jul-22 16:33N 35°55' E 014°34'3 2.9
2015-Jul-22 15:27N 35°53' E 014°31'0 0.0
2015-Jul-22 14:33N 35°53' E 014°31'0 0.0
2015-Jul-22 13:23N 35°53' E 014°31'0 0.0
2015-Jul-22 09:31N 35°53' E 014°31'0 0.0
2015-Jul-22 08:33N 35°53' E 014°31'2 2.0
2015-Jul-22 07:33N 35°54' E 014°33'1514.9
2015-Jul-22 06:33N 35°60' E 014°50'1616.5
2015-Jul-22 05:33N 36°00' E 015°10'1616.4
2015-Jul-22 04:33N 36°01' E 015°30'1716.6
2015-Jul-22 03:33N 36°02' E 015°51'1716.6
2015-Jul-22 02:33N 36°03' E 016°12'1817.4
2015-Jul-22 01:32N 36°04' E 016°33'40616.9
2015-Jul-21 01:33N 37°16' E 024°51'1918.5
2015-Jul-21 00:33N 37°27' E 025°10'7 7.2
2015-Jul-20 23:31N 37°28' E 025°19'0 0.0
2015-Jul-20 22:31N 37°28' E 025°19'0 0.0
2015-Jul-20 21:33N 37°28' E 025°19'0 0.0
2015-Jul-20 20:33N 37°28' E 025°19'0 0.0
2015-Jul-20 19:32N 37°28' E 025°19'0 0.0
2015-Jul-20 18:29N 37°28' E 025°19'0 0.0
2015-Jul-20 17:32N 37°28' E 025°19'0 0.0
2015-Jul-20 16:31N 37°28' E 025°19'0 0.0
2015-Jul-20 15:31N 37°28' E 025°19'0 0.0
2015-Jul-20 14:33N 37°28' E 025°19'0 0.0
2015-Jul-20 13:33N 37°28' E 025°19'0 0.0
2015-Jul-20 12:33N 37°28' E 025°19'0 0.0
2015-Jul-20 11:32N 37°28' E 025°19'0 0.0
2015-Jul-20 10:32N 37°28' E 025°19'0 0.0
2015-Jul-20 09:31N 37°28' E 025°19'0 0.0
2015-Jul-20 08:33N 37°28' E 025°19'8 8.0
2015-Jul-20 07:34N 37°36' E 025°19'  
Track history (hours):
 
Tides and Currents Weather Stations Pressure Air Temp Water Temp Dewpoint Dewpoint Depression Visibility Wind Speed Wind Dir Waves Ship Positions

Celebrity Equinox

Last reported at 2015-Jul-29 17:32 UTC. Time now 2015-Jul-30 16:16 UTC.
Position N 38°54' E 001°27'.

Length 316 m.

Type: Ship. MMSI: 249667000.

Date/timePositionNaut miles runAvg speedWind from/ knotsBaromVisibWave heightAir tempDewpointWater temp
2015-Jul-29 17:32N 38°54' E 001°27'0 0.0
2015-Jul-29 16:33N 38°54' E 001°27'0 0.0
2015-Jul-29 15:31N 38°54' E 001°27'0 0.0
2015-Jul-29 14:29N 38°54' E 001°27'1 0.8
2015-Jul-29 13:29N 38°54' E 001°28'1414.6
2015-Jul-29 12:33N 39°00' E 001°43'2019.2
2015-Jul-29 11:29N 39°17' E 001°58'1819.3
2015-Jul-29 10:33N 39°33' E 002°11'1816.9
2015-Jul-29 09:30N 39°46' E 002°25'3517.4
2015-Jul-29 07:29N 40°12' E 002°56'1617.4
2015-Jul-29 06:33N 40°24' E 003°12'1818.0
2015-Jul-29 05:33N 40°36' E 003°28'13120.9
2015-Jul-28 23:16N 42°12' E 005°29'1419.6
2015-Jul-28 22:33N 42°21' E 005°43'2019.6
2015-Jul-28 21:33N 42°35' E 006°02'2320.3
2015-Jul-28 20:25N 42°50' E 006°24'1820.8
2015-Jul-28 19:33N 43°05' E 006°40'2120.9
2015-Jul-28 18:33N 43°21' E 006°57'2121.0
2015-Jul-28 17:33N 43°37' E 007°16'5 4.6
2015-Jul-28 16:31N 43°41' E 007°19'0 0.0
2015-Jul-28 15:25N 43°41' E 007°19'0 0.0
2015-Jul-28 14:24N 43°41' E 007°19'0 0.0
2015-Jul-28 13:30N 43°41' E 007°19'0 0.0
2015-Jul-28 12:29N 43°41' E 007°19'0 0.0
2015-Jul-28 11:29N 43°41' E 007°19'0 0.0
2015-Jul-28 10:22N 43°41' E 007°19'0 0.0
2015-Jul-28 09:28N 43°41' E 007°19'0 0.0
2015-Jul-28 08:22N 43°41' E 007°19'0 0.0
2015-Jul-28 07:27N 43°41' E 007°19'0 0.0
2015-Jul-28 06:33N 43°41' E 007°19'0 0.0
2015-Jul-28 05:32N 43°41' E 007°19'0 0.1
2015-Jul-28 04:33N 43°41' E 007°19'5 5.4
2015-Jul-28 03:33N 43°36' E 007°21'4112.3
2015-Jul-28 00:12N 42°59' E 007°47'810.3
2015-Jul-27 23:23N 42°52' E 007°52'910.4
2015-Jul-27 22:33N 42°44' E 007°57'  
2015-Jul-24 19:27N 40°38' E 013°42'1920.8
2015-Jul-24 18:33N 40°32' E 014°05'2020.3
2015-Jul-24 17:33N 40°34' E 014°32'9 0.6
2015-Jul-24 04:15N 40°35' E 014°43'1014.7
2015-Jul-24 03:33N 40°25' E 014°44'12615.7
2015-Jul-23 19:29N 38°26' E 015°38'1213.4
2015-Jul-23 18:34N 38°14' E 015°37'1716.9
2015-Jul-23 17:33N 37°58' E 015°30'1817.5
2015-Jul-23 16:33N 37°42' E 015°20'1715.4
2015-Jul-23 15:25N 37°28' E 015°06'32 2.2
2015-Jul-23 01:06N 37°02' E 015°29'5 9.6
2015-Jul-23 00:33N 36°57' E 015°31'10 9.5
2015-Jul-22 23:33N 36°48' E 015°28'10 9.7
2015-Jul-22 22:33N 36°38' E 015°26'10 9.5
2015-Jul-22 21:33N 36°30' E 015°19'10 9.8
2015-Jul-22 20:33N 36°23' E 015°11'9 9.4
2015-Jul-22 19:33N 36°17' E 015°02'9 9.3
2015-Jul-22 18:33N 36°11' E 014°54'9 9.5
2015-Jul-22 17:33N 36°04' E 014°45'1312.9
2015-Jul-22 16:33N 35°55' E 014°34'3 2.9
2015-Jul-22 15:27N 35°53' E 014°31'0 0.0
2015-Jul-22 14:33N 35°53' E 014°31'0 0.0
2015-Jul-22 13:23N 35°53' E 014°31'0 0.0
2015-Jul-22 09:31N 35°53' E 014°31'0 0.0
2015-Jul-22 08:33N 35°53' E 014°31'2 2.0
2015-Jul-22 07:33N 35°54' E 014°33'1514.9
2015-Jul-22 06:33N 35°60' E 014°50'1616.5
2015-Jul-22 05:33N 36°00' E 015°10'1616.4
2015-Jul-22 04:33N 36°01' E 015°30'1716.6
2015-Jul-22 03:33N 36°02' E 015°51'1716.6
2015-Jul-22 02:33N 36°03' E 016°12'1817.4
2015-Jul-22 01:32N 36°04' E 016°33'40616.9
2015-Jul-21 01:33N 37°16' E 024°51'1918.5
2015-Jul-21 00:33N 37°27' E 025°10'7 7.2
2015-Jul-20 23:31N 37°28' E 025°19'0 0.0
2015-Jul-20 22:31N 37°28' E 025°19'0 0.0
2015-Jul-20 21:33N 37°28' E 025°19'0 0.0
2015-Jul-20 20:33N 37°28' E 025°19'0 0.0
2015-Jul-20 19:32N 37°28' E 025°19'0 0.0
2015-Jul-20 18:29N 37°28' E 025°19'0 0.0
2015-Jul-20 17:32N 37°28' E 025°19'0 0.0
2015-Jul-20 16:31N 37°28' E 025°19'0 0.0
2015-Jul-20 15:31N 37°28' E 025°19'0 0.0
2015-Jul-20 14:33N 37°28' E 025°19'0 0.0
2015-Jul-20 13:33N 37°28' E 025°19'0 0.0
2015-Jul-20 12:33N 37°28' E 025°19'0 0.0
2015-Jul-20 11:32N 37°28' E 025°19'0 0.0
2015-Jul-20 10:32N 37°28' E 025°19'0 0.0
2015-Jul-20 09:31N 37°28' E 025°19'0 0.0
2015-Jul-20 08:33N 37°28' E 025°19'8 8.0
2015-Jul-20 07:34N 37°36' E 025°19'  

Dump ship's entire track history